Time;durP1;ratioP1;P1;durP2;ratioP2;P2;SDS_P1;SDS_P2;PMS_P1;PMS_P2;Temp;Humidity;BMP_temperature;BMP_pressure;BME280_temperature;BME280_humidity;BME280_pressure;Samples;Min_cycle;Max_cycle;Signal;HPM_P1;HPM_P2
2020/12/01 00:00:18;;;;;;;45.17;19.27;;;-0.70;98.50;;;;;;5008339;28;20663;-62
2020/12/01 00:02:45;;;;;;;39.30;17.77;;;-0.70;98.50;;;;;;5002755;28;20883;-61
2020/12/01 00:05:13;;;;;;;50.60;17.10;;;-0.70;98.50;;;;;;5008999;28;20441;-61
2020/12/01 00:07:38;;;;;;;40.53;17.90;;;-0.60;98.40;;;;;;5013008;28;20562;-60
2020/12/01 00:10:05;;;;;;;42.50;17.73;;;-0.60;98.40;;;;;;5009398;28;20954;-60
2020/12/01 00:12:31;;;;;;;42.20;18.33;;;-0.60;98.40;;;;;;5009987;28;20409;-63
2020/12/01 00:14:56;;;;;;;48.40;18.70;;;-0.60;98.30;;;;;;5009846;28;20931;-60
2020/12/01 00:17:22;;;;;;;42.20;17.40;;;-0.60;98.30;;;;;;5005138;28;20193;-61
2020/12/01 00:19:48;;;;;;;48.70;19.27;;;-0.60;98.20;;;;;;5012985;28;20187;-61
2020/12/01 00:22:13;;;;;;;45.80;19.87;;;-0.60;98.10;;;;;;5014055;28;20214;-63
2020/12/01 00:24:39;;;;;;;39.33;17.63;;;-0.60;98.30;;;;;;5006727;28;20195;-60
2020/12/01 00:27:05;;;;;;;39.47;17.83;;;-0.60;98.30;;;;;;5008136;28;20192;-60
2020/12/01 00:29:30;;;;;;;39.50;17.10;;;-0.60;98.30;;;;;;5012562;28;20461;-62
2020/12/01 00:31:57;;;;;;;42.60;17.70;;;-0.50;98.40;;;;;;5013574;28;20186;-61
2020/12/01 00:34:22;;;;;;;37.50;16.37;;;-0.50;98.20;;;;;;5012947;28;20978;-61
2020/12/01 00:36:48;;;;;;;40.10;18.93;;;-0.60;98.20;;;;;;5016362;28;20171;-61
2020/12/01 00:39:14;;;;;;;41.23;17.77;;;-0.60;98.00;;;;;;5007186;28;20212;-64
2020/12/01 00:41:40;;;;;;;43.60;16.60;;;-0.60;98.10;;;;;;5013546;28;20184;-62
2020/12/01 00:44:06;;;;;;;35.13;16.30;;;-0.60;98.30;;;;;;5013080;28;20700;-61
2020/12/01 00:46:32;;;;;;;36.23;17.10;;;-0.60;98.40;;;;;;5011949;28;20430;-61
2020/12/01 00:48:58;;;;;;;42.53;17.30;;;-0.60;98.30;;;;;;5012965;28;20761;-65
2020/12/01 00:51:24;;;;;;;43.27;17.70;;;-0.60;98.20;;;;;;5017266;28;20449;-61
2020/12/01 00:53:50;;;;;;;44.30;17.40;;;-0.60;98.30;;;;;;5013297;28;20410;-61
2020/12/01 00:56:21;;;;;;;40.67;17.13;;;-0.60;98.20;;;;;;5011376;28;20412;-62
2020/12/01 00:58:47;;;;;;;35.10;16.10;;;-0.60;98.30;;;;;;5011050;28;20443;-61
2020/12/01 01:01:13;;;;;;;45.77;18.83;;;-0.50;98.30;;;;;;5014266;28;20957;-61
2020/12/01 01:03:39;;;;;;;44.07;17.53;;;-0.50;98.30;;;;;;5010804;28;20195;-61
2020/12/01 01:06:11;;;;;;;36.07;15.70;;;-0.50;98.30;;;;;;5014022;28;20456;-61
2020/12/01 01:08:38;;;;;;;39.90;16.50;;;-0.50;98.20;;;;;;5015471;28;20469;-61
2020/12/01 01:11:05;;;;;;;42.00;17.30;;;-0.60;98.20;;;;;;5013126;28;20781;-60
2020/12/01 01:13:30;;;;;;;41.27;17.10;;;-0.60;98.20;;;;;;5010583;28;20528;-62
2020/12/01 01:15:56;;;;;;;37.80;16.20;;;-0.50;98.30;;;;;;5013310;28;21000;-61
2020/12/01 01:18:21;;;;;;;41.80;17.97;;;-0.50;98.50;;;;;;5000805;28;20282;-61
2020/12/01 01:20:47;;;;;;;46.03;17.50;;;-0.50;98.70;;;;;;5008725;28;20188;-65
2020/12/01 01:23:13;;;;;;;42.07;17.27;;;-0.50;98.90;;;;;;5010577;28;20322;-61
2020/12/01 01:25:39;;;;;;;42.00;17.67;;;-0.50;99.10;;;;;;5012055;28;20218;-63
2020/12/01 01:28:04;;;;;;;46.57;17.93;;;-0.50;99.30;;;;;;5009054;28;20296;-63
2020/12/01 01:30:30;;;;;;;40.37;17.50;;;-0.40;99.30;;;;;;5012592;28;20417;-61
2020/12/01 01:32:58;;;;;;;44.30;16.70;;;-0.40;99.40;;;;;;5012457;28;20648;-60
2020/12/01 01:35:24;;;;;;;43.53;18.10;;;-0.50;99.60;;;;;;5011399;28;20654;-61
2020/12/01 01:37:49;;;;;;;41.87;18.20;;;-0.40;99.80;;;;;;5018576;28;20481;-61
2020/12/01 01:40:24;;;;;;;40.57;17.00;;;-0.40;99.80;;;;;;5014900;28;20186;-61
2020/12/01 01:42:50;;;;;;;45.37;17.80;;;-0.40;99.90;;;;;;5006628;28;20277;-61
2020/12/01 01:45:38;;;;;;;41.20;17.53;;;-0.40;99.90;;;;;;5009655;28;20540;-61
2020/12/01 01:48:13;;;;;;;35.30;16.17;;;-0.40;99.90;;;;;;5012954;28;20470;-61
2020/12/01 01:50:39;;;;;;;41.80;18.00;;;-0.40;99.90;;;;;;5008786;28;20519;-63
2020/12/01 01:53:04;;;;;;;40.10;18.07;;;-0.30;99.90;;;;;;5007852;28;20543;-60
2020/12/01 01:55:30;;;;;;;39.57;17.57;;;-0.30;99.90;;;;;;5010997;28;20558;-61
2020/12/01 01:58:05;;;;;;;40.97;16.90;;;-0.30;99.90;;;;;;5007837;28;20311;-61
2020/12/01 02:01:03;;;;;;;44.13;17.93;;;-0.30;99.90;;;;;;5002891;28;20438;-59
2020/12/01 02:03:45;;;;;;;40.17;17.83;;;-0.30;99.90;;;;;;5006131;28;20928;-59
2020/12/01 02:06:16;;;;;;;51.40;18.50;;;-0.30;99.90;;;;;;5011268;28;20436;-61
2020/12/01 02:08:45;;;;;;;47.83;18.40;;;-0.30;99.90;;;;;;5012789;28;20568;-62
2020/12/01 02:11:11;;;;;;;55.77;19.07;;;-0.30;99.90;;;;;;5008113;28;20453;-61
2020/12/01 02:13:59;;;;;;;40.40;18.37;;;-0.20;99.90;;;;;;5011807;28;20467;-62
2020/12/01 02:16:25;;;;;;;42.30;18.93;;;-0.20;99.90;;;;;;5012160;28;20584;-61
2020/12/01 02:18:52;;;;;;;43.00;16.90;;;-0.20;99.90;;;;;;5000745;28;20499;-61
2020/12/01 02:21:39;;;;;;;44.80;19.10;;;-0.20;99.90;;;;;;5009463;28;20185;-65
2020/12/01 02:24:10;;;;;;;33.90;16.67;;;-0.20;99.90;;;;;;5003444;28;20994;-61
2020/12/01 02:26:36;;;;;;;41.60;17.63;;;-0.20;99.90;;;;;;5009774;28;20433;-61
2020/12/01 02:29:06;;;;;;;35.13;15.83;;;-0.20;99.90;;;;;;5012904;28;20466;-61
2020/12/01 02:31:32;;;;;;;36.97;16.27;;;-0.20;99.90;;;;;;5009730;28;20678;-61
2020/12/01 02:33:58;;;;;;;39.37;16.77;;;-0.20;99.90;;;;;;5008652;28;20435;-63
2020/12/01 02:36:24;;;;;;;38.07;16.93;;;-0.20;99.90;;;;;;5010187;28;20173;-62
2020/12/01 02:38:49;;;;;;;35.53;16.13;;;-0.20;99.90;;;;;;5009488;28;20498;-61
2020/12/01 02:41:15;;;;;;;39.43;16.13;;;-0.20;99.90;;;;;;5010638;28;20236;-61
2020/12/01 02:43:41;;;;;;;34.43;15.43;;;-0.20;99.90;;;;;;4990395;28;20195;-61
2020/12/01 02:46:07;;;;;;;39.10;17.37;;;-0.20;99.90;;;;;;5007238;28;20198;-61
2020/12/01 02:48:32;;;;;;;39.30;17.23;;;-0.20;99.90;;;;;;5009334;28;20219;-62
2020/12/01 02:50:58;;;;;;;35.23;16.17;;;-0.10;99.90;;;;;;4987987;28;20436;-61
2020/12/01 02:53:24;;;;;;;34.87;16.37;;;-0.10;99.90;;;;;;5009872;28;20178;-61
2020/12/01 02:55:50;;;;;;;32.33;15.30;;;-0.10;99.90;;;;;;5010850;28;20281;-61
2020/12/01 02:58:15;;;;;;;34.10;15.30;;;-0.10;99.90;;;;;;5010672;28;20532;-61
2020/12/01 03:00:43;;;;;;;30.90;15.00;;;-0.10;99.90;;;;;;5009665;28;20206;-61
2020/12/01 03:03:09;;;;;;;34.53;14.93;;;-0.10;99.90;;;;;;5004942;28;20199;-61
2020/12/01 03:05:35;;;;;;;33.67;13.97;;;-0.10;99.90;;;;;;5007476;28;20432;-62
2020/12/01 03:08:01;;;;;;;33.20;14.93;;;-0.10;99.90;;;;;;5012912;28;20456;-61
2020/12/01 03:10:26;;;;;;;29.67;13.73;;;-0.10;99.90;;;;;;5010543;28;20208;-64
2020/12/01 03:12:52;;;;;;;31.63;13.83;;;-0.10;99.90;;;;;;5008657;28;20273;-60
2020/12/01 03:15:18;;;;;;;30.30;14.97;;;-0.10;99.90;;;;;;5006194;28;20188;-61
2020/12/01 03:17:44;;;;;;;27.17;12.80;;;-0.10;99.90;;;;;;5010300;28;20202;-61
2020/12/01 03:20:10;;;;;;;29.47;13.13;;;-0.10;99.90;;;;;;5005415;28;20444;-62
2020/12/01 03:22:35;;;;;;;34.20;13.83;;;-0.10;99.90;;;;;;5016874;28;20636;-61
2020/12/01 03:25:01;;;;;;;30.10;12.27;;;-0.10;99.90;;;;;;5007206;28;20182;-62
2020/12/01 03:27:27;;;;;;;29.97;12.63;;;-0.10;99.90;;;;;;5006101;28;20224;-62
2020/12/01 03:29:53;;;;;;;22.33;11.13;;;-0.10;99.90;;;;;;5007249;28;20515;-63
2020/12/01 03:32:21;;;;;;;26.83;12.30;;;-0.10;99.90;;;;;;5007118;28;20673;-62
2020/12/01 03:34:47;;;;;;;19.77;11.17;;;-0.10;99.90;;;;;;5010208;28;20238;-63
2020/12/01 03:37:13;;;;;;;21.00;9.40;;;-0.20;99.90;;;;;;5010174;28;20508;-60
2020/12/01 03:39:39;;;;;;;19.97;9.00;;;-0.10;99.90;;;;;;5009333;28;20186;-61
2020/12/01 03:42:05;;;;;;;20.70;9.87;;;-0.10;99.90;;;;;;5009298;28;20413;-60
2020/12/01 03:44:31;;;;;;;18.10;9.60;;;-0.20;99.90;;;;;;5008583;28;20441;-61
2020/12/01 03:46:57;;;;;;;21.03;9.87;;;-0.20;99.90;;;;;;5010403;28;20512;-65
2020/12/01 03:49:23;;;;;;;16.90;10.27;;;-0.20;99.90;;;;;;5008853;28;20551;-61
2020/12/01 03:51:49;;;;;;;19.43;9.70;;;-0.20;99.90;;;;;;5013007;28;20860;-60
2020/12/01 03:54:16;;;;;;;22.10;11.30;;;-0.20;99.90;;;;;;4993811;28;20478;-61
2020/12/01 03:56:42;;;;;;;19.33;9.97;;;-0.20;99.90;;;;;;5012461;28;20428;-61
2020/12/01 03:59:08;;;;;;;22.00;9.50;;;-0.20;99.90;;;;;;5013595;28;20960;-63
2020/12/01 04:01:33;;;;;;;21.60;10.87;;;-0.30;99.90;;;;;;5011701;28;20429;-60
2020/12/01 04:03:59;;;;;;;18.97;9.27;;;-0.30;99.90;;;;;;5011916;28;20256;-61
2020/12/01 04:06:25;;;;;;;24.00;9.83;;;-0.30;99.90;;;;;;5012264;28;20192;-61
2020/12/01 04:08:51;;;;;;;17.47;9.30;;;-0.20;99.90;;;;;;5014399;28;20475;-61
2020/12/01 04:11:17;;;;;;;18.33;9.00;;;-0.20;99.90;;;;;;5014521;28;20436;-60
2020/12/01 04:13:43;;;;;;;23.00;10.47;;;-0.20;99.90;;;;;;5013478;28;20257;-61
2020/12/01 04:16:09;;;;;;;22.13;10.60;;;-0.20;99.90;;;;;;5010582;28;20436;-66
2020/12/01 04:18:34;;;;;;;19.10;9.80;;;-0.20;99.90;;;;;;5012174;28;20575;-64
2020/12/01 04:21:00;;;;;;;19.40;10.53;;;-0.20;99.90;;;;;;5007337;28;20433;-63
2020/12/01 04:23:26;;;;;;;20.50;9.37;;;-0.20;99.90;;;;;;5011019;28;20191;-63
2020/12/01 04:25:53;;;;;;;17.30;8.93;;;-0.20;99.90;;;;;;5012514;28;20417;-66
2020/12/01 04:28:18;;;;;;;21.40;10.80;;;-0.20;99.90;;;;;;5010221;28;20469;-61
2020/12/01 04:30:44;;;;;;;19.60;10.27;;;-0.20;99.90;;;;;;5011721;28;20425;-62
2020/12/01 04:33:10;;;;;;;22.27;11.20;;;-0.10;99.90;;;;;;5010250;28;20421;-60
2020/12/01 04:35:38;;;;;;;21.43;10.30;;;-0.20;99.90;;;;;;5012466;28;20512;-61
2020/12/01 04:38:06;;;;;;;19.17;10.47;;;-0.20;99.90;;;;;;4995063;28;20242;-60
2020/12/01 04:40:35;;;;;;;18.53;10.20;;;-0.20;99.90;;;;;;5012338;28;20483;-60
2020/12/01 04:43:15;;;;;;;17.83;10.03;;;-0.20;99.90;;;;;;5011836;28;20778;-61
2020/12/01 04:45:42;;;;;;;19.93;10.40;;;-0.20;99.90;;;;;;5011988;28;20537;-61
2020/12/01 04:48:49;;;;;;;21.70;10.87;;;-0.20;99.90;;;;;;5011451;28;20691;-64
2020/12/01 04:51:52;;;;;;;20.57;10.33;;;-0.20;99.90;;;;;;4979482;28;20428;-61
2020/12/01 04:55:12;;;;;;;18.17;10.00;;;-0.20;99.90;;;;;;4995032;28;20443;-60
2020/12/01 04:58:13;;;;;;;21.53;10.93;;;-0.20;99.90;;;;;;5019089;28;20557;-60
2020/12/01 05:00:53;;;;;;;24.50;10.87;;;-0.20;99.90;;;;;;5007149;28;20858;-58
2020/12/01 05:03:31;;;;;;;22.40;11.00;;;-0.20;99.90;;;;;;5000364;28;20475;-61
2020/12/01 05:06:42;;;;;;;18.87;10.40;;;-0.10;99.90;;;;;;5003586;28;20892;-61
2020/12/01 05:09:34;;;;;;;21.43;11.13;;;-0.10;99.90;;;;;;5005406;28;20457;-66
2020/12/01 05:12:02;;;;;;;26.83;11.80;;;-0.10;99.90;;;;;;5003673;28;20795;-65
2020/12/01 05:14:33;;;;;;;20.37;10.70;;;-0.10;99.90;;;;;;5002661;28;20556;-62
2020/12/01 05:17:26;;;;;;;22.30;10.57;;;-0.10;99.90;;;;;;4994756;28;20440;-62
2020/12/01 05:19:51;;;;;;;19.10;10.57;;;-0.10;99.90;;;;;;4994714;28;20510;-61
2020/12/01 05:22:20;;;;;;;21.23;10.50;;;-0.10;99.90;;;;;;4994420;28;22213;-63
2020/12/01 05:24:49;;;;;;;19.70;10.93;;;0.00;99.90;;;;;;5000416;28;20199;-63
2020/12/01 05:27:29;;;;;;;22.10;9.97;;;0.00;99.90;;;;;;5001598;28;20422;-60
2020/12/01 05:30:10;;;;;;;26.97;12.60;;;0.10;99.90;;;;;;5002808;28;20429;-60
2020/12/01 05:33:13;;;;;;;21.80;10.53;;;0.10;99.90;;;;;;5000546;28;20437;-61
2020/12/01 05:35:38;;;;;;;17.60;10.20;;;0.10;99.90;;;;;;4993830;28;20586;-66
2020/12/01 05:38:13;;;;;;;22.40;10.67;;;0.10;99.90;;;;;;5006243;28;20550;-62
2020/12/01 05:40:51;;;;;;;18.37;9.40;;;0.10;99.90;;;;;;5009790;28;20182;-62
2020/12/01 05:43:36;;;;;;;21.47;9.40;;;0.10;99.90;;;;;;5007414;28;20433;-61
2020/12/01 05:46:13;;;;;;;17.50;9.67;;;0.10;99.90;;;;;;5013867;28;20433;-62
2020/12/01 05:49:03;;;;;;;17.77;9.70;;;0.10;99.90;;;;;;5005882;28;20465;-63
2020/12/01 05:51:43;;;;;;;16.33;9.17;;;0.10;99.90;;;;;;5009214;28;20451;-58
2020/12/01 05:54:32;;;;;;;16.87;9.50;;;0.10;99.90;;;;;;5010257;28;20926;-61
2020/12/01 05:56:58;;;;;;;17.83;9.30;;;0.10;99.90;;;;;;5003916;28;20426;-63
2020/12/01 05:59:24;;;;;;;16.00;9.00;;;0.20;99.90;;;;;;5006498;28;20511;-60
2020/12/01 06:01:57;;;;;;;17.03;8.80;;;0.20;99.90;;;;;;5004414;28;20244;-65
2020/12/01 06:04:25;;;;;;;18.97;8.80;;;0.20;99.90;;;;;;5003490;28;20429;-62
2020/12/01 06:07:11;;;;;;;15.83;8.13;;;0.20;99.90;;;;;;5008476;28;20778;-61
2020/12/01 06:09:44;;;;;;;18.17;9.20;;;0.10;99.90;;;;;;5011543;28;21001;-61
2020/12/01 06:12:25;;;;;;;15.83;8.73;;;0.10;99.90;;;;;;5000873;28;20479;-61
2020/12/01 06:14:59;;;;;;;15.47;8.90;;;0.10;99.90;;;;;;5011330;28;20515;-63
2020/12/01 06:17:44;;;;;;;16.63;8.40;;;0.10;99.90;;;;;;4999695;28;20424;-66
2020/12/01 06:20:16;;;;;;;16.57;8.60;;;0.20;99.90;;;;;;5002679;28;20899;-61
2020/12/01 06:23:07;;;;;;;14.17;6.80;;;0.20;99.90;;;;;;5009596;28;20425;-60
2020/12/01 06:25:47;;;;;;;14.20;8.10;;;0.20;99.90;;;;;;5007584;28;20500;-59
2020/12/01 06:28:52;;;;;;;15.83;8.30;;;0.20;99.90;;;;;;5010270;28;20460;-60
2020/12/01 06:31:27;;;;;;;14.83;8.00;;;0.20;99.90;;;;;;5004906;28;20460;-59
2020/12/01 06:34:11;;;;;;;11.53;6.83;;;0.20;99.90;;;;;;5015458;28;20895;-59
2020/12/01 06:36:55;;;;;;;16.47;7.80;;;0.20;99.90;;;;;;5008169;28;20433;-60
2020/12/01 06:39:34;;;;;;;16.43;7.10;;;0.20;99.90;;;;;;5010797;28;20440;-58
2020/12/01 06:42:20;;;;;;;9.80;6.27;;;0.20;99.90;;;;;;5011107;28;20931;-58
2020/12/01 06:45:01;;;;;;;11.37;6.30;;;0.20;99.90;;;;;;5010380;28;20425;-58
2020/12/01 06:47:31;;;;;;;9.90;5.90;;;0.20;99.90;;;;;;5007991;28;20436;-58
2020/12/01 06:50:02;;;;;;;10.90;5.70;;;0.20;99.90;;;;;;5011988;28;20919;-57
2020/12/01 06:52:28;;;;;;;10.77;6.53;;;0.30;99.90;;;;;;5008515;28;20809;-58
2020/12/01 06:54:59;;;;;;;11.53;5.80;;;0.30;99.90;;;;;;5010424;28;20427;-59
2020/12/01 06:57:36;;;;;;;9.00;5.57;;;0.30;99.90;;;;;;5012455;28;20201;-58
2020/12/01 07:00:07;;;;;;;10.13;6.03;;;0.30;99.90;;;;;;5011245;28;20486;-58
2020/12/01 07:02:39;;;;;;;9.87;4.87;;;0.30;99.90;;;;;;5011748;28;20461;-60
2020/12/01 07:05:10;;;;;;;9.67;5.50;;;0.40;99.90;;;;;;5010826;28;20432;-57
2020/12/01 07:07:40;;;;;;;9.63;5.77;;;0.40;99.90;;;;;;5009128;28;20816;-59
2020/12/01 07:10:24;;;;;;;9.90;6.30;;;0.40;99.90;;;;;;4999721;28;20459;-58
2020/12/01 07:12:54;;;;;;;9.40;6.10;;;0.40;99.90;;;;;;5009024;28;20501;-58
2020/12/01 07:15:40;;;;;;;12.67;6.30;;;0.40;99.90;;;;;;5022232;28;20436;-60
2020/12/01 07:18:27;;;;;;;9.97;6.00;;;0.40;99.90;;;;;;5009685;28;20455;-57
2020/12/01 07:21:22;;;;;;;10.23;5.77;;;0.40;99.90;;;;;;5005628;28;20430;-58
2020/12/01 07:23:59;;;;;;;12.40;6.93;;;0.40;99.90;;;;;;5013855;28;20436;-60
2020/12/01 07:27:16;;;;;;;10.67;6.53;;;0.40;99.90;;;;;;5008614;28;20432;-59
2020/12/01 07:30:11;;;;;;;11.00;5.80;;;0.40;99.90;;;;;;4994094;28;20477;-60
2020/12/01 07:32:45;;;;;;;11.60;6.70;;;0.40;99.90;;;;;;5008867;28;20412;-62
2020/12/01 07:35:28;;;;;;;10.30;6.10;;;0.40;99.90;;;;;;5008399;28;20507;-60
2020/12/01 07:38:04;;;;;;;10.80;6.50;;;0.40;99.90;;;;;;5010801;28;20457;-58
2020/12/01 07:40:41;;;;;;;11.17;6.27;;;0.40;99.90;;;;;;5023369;28;20424;-61
2020/12/01 07:43:12;;;;;;;11.50;6.27;;;0.50;99.90;;;;;;5023757;28;20476;-59
2020/12/01 07:45:38;;;;;;;14.73;7.87;;;0.50;99.90;;;;;;5022073;28;20537;-58
2020/12/01 07:48:04;;;;;;;16.60;7.70;;;0.50;99.90;;;;;;5005872;28;21306;-60
2020/12/01 07:50:32;;;;;;;12.20;6.40;;;0.50;99.90;;;;;;5007791;28;20240;-61
2020/12/01 07:53:08;;;;;;;12.13;6.57;;;0.50;99.90;;;;;;5007200;28;20457;-60
2020/12/01 07:55:38;;;;;;;13.70;7.60;;;0.60;99.90;;;;;;5011067;28;20415;-60
2020/12/01 07:58:20;;;;;;;12.57;6.97;;;0.60;99.90;;;;;;5006884;28;20472;-63
2020/12/01 08:00:58;;;;;;;12.00;6.70;;;0.70;99.90;;;;;;5009939;28;20865;-61
2020/12/01 08:03:36;;;;;;;14.30;7.10;;;0.70;99.90;;;;;;5010425;28;20410;-61
2020/12/01 08:06:06;;;;;;;15.00;7.47;;;0.70;99.90;;;;;;5008305;28;20429;-61
2020/12/01 08:08:38;;;;;;;11.33;6.67;;;0.70;99.90;;;;;;5020904;28;20501;-61
2020/12/01 08:11:07;;;;;;;10.27;6.80;;;0.70;99.90;;;;;;4995484;28;20772;-60
2020/12/01 08:13:36;;;;;;;11.60;6.53;;;0.70;99.90;;;;;;5006107;28;20528;-60
2020/12/01 08:16:11;;;;;;;9.23;5.73;;;0.70;99.90;;;;;;5008547;28;20954;-60
2020/12/01 08:18:37;;;;;;;12.13;6.17;;;0.80;99.90;;;;;;5004933;28;20466;-62
2020/12/01 08:21:04;;;;;;;10.00;6.30;;;0.80;99.90;;;;;;5008749;28;20463;-62
2020/12/01 08:23:31;;;;;;;8.33;5.83;;;0.80;99.90;;;;;;5008299;28;20452;-62
2020/12/01 08:26:10;;;;;;;11.93;6.00;;;0.90;99.90;;;;;;5006636;28;20674;-62
2020/12/01 08:28:46;;;;;;;11.17;6.43;;;1.00;99.90;;;;;;5006492;28;20839;-62
2020/12/01 08:31:48;;;;;;;9.23;6.53;;;1.00;99.90;;;;;;5009543;28;20844;-60
2020/12/01 08:34:36;;;;;;;10.53;6.53;;;1.10;99.90;;;;;;5007884;28;20479;-60
2020/12/01 08:37:46;;;;;;;15.67;9.57;;;1.20;99.90;;;;;;5010629;28;20437;-60
2020/12/01 08:40:50;;;;;;;12.23;6.67;;;1.30;99.90;;;;;;5003193;28;20440;-59
2020/12/01 08:43:45;;;;;;;9.10;6.40;;;1.30;99.90;;;;;;5015894;28;20444;-60
2020/12/01 08:46:30;;;;;;;10.10;6.13;;;1.30;99.90;;;;;;5011929;28;20438;-60
2020/12/01 08:49:23;;;;;;;8.30;5.13;;;1.30;99.90;;;;;;5010711;28;21122;-61
2020/12/01 08:52:01;;;;;;;9.13;6.10;;;1.30;99.90;;;;;;5013580;28;20882;-60
2020/12/01 08:54:31;;;;;;;8.90;5.80;;;1.30;99.90;;;;;;5013002;28;20918;-61
2020/12/01 08:57:26;;;;;;;11.87;6.17;;;1.30;99.90;;;;;;5014346;28;20487;-59
2020/12/01 09:00:13;;;;;;;8.60;5.80;;;1.30;99.90;;;;;;5002513;28;20453;-61
2020/12/01 09:02:42;;;;;;;10.70;6.60;;;1.30;99.90;;;;;;5010921;28;20440;-61
2020/12/01 09:05:27;;;;;;;10.40;6.50;;;1.30;99.90;;;;;;5012536;28;20430;-63
2020/12/01 09:08:40;;;;;;;12.90;5.77;;;1.30;99.90;;;;;;5011034;28;20994;-64
2020/12/01 09:16:55;;;;;;;11.33;6.23;;;1.30;99.90;;;;;;4997422;28;20456;-62
2020/12/01 09:20:01;;;;;;;10.17;6.87;;;1.30;99.90;;;;;;5003794;28;21025;-62
2020/12/01 09:22:32;;;;;;;6.73;4.87;;;1.40;99.90;;;;;;5011057;28;20433;-63
2020/12/01 09:25:27;;;;;;;10.40;5.57;;;1.40;99.90;;;;;;5013187;28;20429;-63
2020/12/01 09:27:54;;;;;;;4.90;4.33;;;1.40;99.90;;;;;;5006370;28;20471;-63
2020/12/01 09:30:30;;;;;;;8.03;4.90;;;1.50;99.90;;;;;;5015210;28;20431;-62
2020/12/01 09:32:56;;;;;;;5.87;4.50;;;1.60;99.90;;;;;;5010617;28;20429;-62
2020/12/01 09:35:22;;;;;;;6.47;4.73;;;1.60;99.90;;;;;;5005066;28;20516;-62
2020/12/01 09:37:49;;;;;;;6.10;4.40;;;1.70;99.90;;;;;;5010880;28;20816;-61
2020/12/01 09:40:15;;;;;;;8.23;5.00;;;1.80;99.90;;;;;;5012559;28;20421;-65
2020/12/01 09:42:44;;;;;;;9.63;5.50;;;1.80;99.90;;;;;;5024321;28;20445;-62
2020/12/01 09:45:22;;;;;;;8.80;6.17;;;1.90;99.90;;;;;;5011901;28;20462;-61
2020/12/01 09:50:32;;;;;;;11.47;6.13;;;2.10;99.90;;;;;;5012824;28;20506;-63
2020/12/01 10:25:23;;;;;;;16.23;6.30;;;2.30;99.90;;;;;;5012777;28;20182;-62
2020/12/01 10:35:23;;;;;;;6.60;4.57;;;2.20;99.90;;;;;;5004803;28;20454;-62
2020/12/01 10:37:55;;;;;;;8.07;4.70;;;2.20;99.90;;;;;;5007690;28;20456;-62
2020/12/01 10:40:22;;;;;;;6.30;4.57;;;2.10;99.90;;;;;;5009562;28;20811;-62
2020/12/01 10:42:48;;;;;;;11.47;5.70;;;2.10;99.90;;;;;;5009634;28;20839;-62
2020/12/01 10:45:17;;;;;;;8.90;5.60;;;2.10;99.90;;;;;;5010287;28;20426;-62
2020/12/01 10:47:43;;;;;;;10.30;5.43;;;2.10;99.90;;;;;;5009693;28;20460;-61
2020/12/01 10:50:08;;;;;;;7.20;5.40;;;2.10;99.90;;;;;;5004597;28;20431;-62
2020/12/01 10:52:34;;;;;;;8.37;5.63;;;2.10;99.90;;;;;;5008270;28;20452;-62
2020/12/01 10:55:01;;;;;;;7.83;4.67;;;2.20;99.90;;;;;;5012800;28;20273;-62
2020/12/01 10:57:27;;;;;;;8.00;5.70;;;2.20;99.90;;;;;;5011181;28;20445;-61
2020/12/01 10:59:53;;;;;;;9.07;4.93;;;2.20;99.90;;;;;;5011271;28;20936;-61
2020/12/01 11:02:19;;;;;;;8.77;5.37;;;2.20;99.90;;;;;;5009379;28;20186;-61
2020/12/01 11:04:45;;;;;;;10.07;6.07;;;2.20;99.90;;;;;;5009002;28;20495;-61
2020/12/01 11:07:10;;;;;;;11.37;6.00;;;2.20;99.90;;;;;;5008291;28;20190;-61
2020/12/01 11:09:36;;;;;;;14.07;7.20;;;2.20;99.90;;;;;;5010900;28;20660;-62
2020/12/01 11:12:02;;;;;;;13.00;7.13;;;2.30;99.90;;;;;;5016778;28;20191;-65
2020/12/01 11:14:28;;;;;;;8.17;5.83;;;2.30;99.90;;;;;;5031384;28;20748;-62
2020/12/01 11:16:53;;;;;;;14.17;7.23;;;2.40;99.90;;;;;;5031534;28;20182;-63
2020/12/01 11:19:19;;;;;;;11.60;5.90;;;2.40;99.90;;;;;;5014180;28;20200;-62
2020/12/01 11:21:45;;;;;;;9.70;6.90;;;2.40;99.90;;;;;;5008103;28;20184;-62
2020/12/01 11:24:10;;;;;;;7.83;5.20;;;2.40;99.90;;;;;;5011399;28;20238;-61
2020/12/01 11:26:36;;;;;;;12.80;6.67;;;2.40;99.90;;;;;;5011529;28;20187;-62
2020/12/01 11:29:02;;;;;;;10.70;6.83;;;2.40;99.90;;;;;;5008662;28;20270;-62
2020/12/01 11:31:28;;;;;;;10.60;6.97;;;2.40;99.90;;;;;;5008525;28;20191;-62
2020/12/01 11:34:06;;;;;;;9.67;6.27;;;2.40;99.90;;;;;;5010216;28;20433;-62
2020/12/01 11:36:33;;;;;;;11.00;6.10;;;2.40;99.90;;;;;;5010823;28;20437;-62
2020/12/01 11:38:59;;;;;;;11.57;7.17;;;2.40;99.90;;;;;;5009416;28;21111;-62
2020/12/01 11:41:25;;;;;;;14.03;6.93;;;2.40;99.90;;;;;;5009443;28;20424;-60
2020/12/01 11:43:51;;;;;;;10.90;6.30;;;2.40;99.90;;;;;;5009236;28;20176;-61
2020/12/01 11:46:17;;;;;;;12.07;6.90;;;2.40;99.90;;;;;;5006918;28;20453;-61
2020/12/01 11:48:43;;;;;;;12.23;7.10;;;2.50;99.90;;;;;;5008710;28;20567;-62
2020/12/01 11:51:10;;;;;;;11.37;7.00;;;2.50;99.90;;;;;;4998503;28;20528;-61
2020/12/01 11:53:36;;;;;;;14.23;7.90;;;2.50;99.90;;;;;;5009457;28;20265;-63
2020/12/01 11:56:02;;;;;;;14.87;7.50;;;2.60;99.90;;;;;;5010426;28;20531;-61
2020/12/01 11:58:27;;;;;;;11.87;6.90;;;2.70;99.90;;;;;;5020534;28;20217;-63
2020/12/01 12:00:53;;;;;;;15.23;6.57;;;2.80;99.90;;;;;;5003700;28;20194;-61
2020/12/01 12:03:19;;;;;;;10.60;6.70;;;3.00;99.90;;;;;;5007396;28;20194;-64
2020/12/01 12:05:45;;;;;;;10.80;6.00;;;3.10;99.90;;;;;;5006381;28;20882;-61
2020/12/01 12:08:11;;;;;;;14.90;6.90;;;3.30;99.90;;;;;;5010069;28;20499;-62
2020/12/01 12:10:37;;;;;;;12.00;7.30;;;3.40;99.90;;;;;;5010697;28;20426;-63
2020/12/01 12:13:02;;;;;;;8.90;6.37;;;3.50;99.90;;;;;;5005710;28;20282;-68
2020/12/01 12:15:28;;;;;;;8.93;6.03;;;3.50;99.90;;;;;;5009077;28;20187;-62
2020/12/01 12:17:54;;;;;;;12.03;5.60;;;3.70;99.90;;;;;;5006658;28;20247;-63
2020/12/01 12:20:20;;;;;;;12.67;7.43;;;3.70;99.90;;;;;;5012899;28;21040;-63
2020/12/01 12:22:46;;;;;;;7.00;4.80;;;3.80;99.90;;;;;;5013698;28;20183;-62
2020/12/01 12:25:12;;;;;;;9.97;6.20;;;3.80;99.90;;;;;;5010338;28;20819;-63
2020/12/01 12:27:38;;;;;;;9.10;5.13;;;3.80;99.90;;;;;;5012367;28;20557;-63
2020/12/01 12:30:05;;;;;;;9.53;5.30;;;3.70;99.90;;;;;;5011215;28;20550;-62
2020/12/01 12:32:31;;;;;;;7.47;5.90;;;3.60;99.90;;;;;;5013763;28;20267;-62
2020/12/01 12:34:56;;;;;;;11.17;6.27;;;3.60;99.90;;;;;;5012895;28;20830;-61
2020/12/01 12:37:22;;;;;;;7.23;5.67;;;3.60;99.90;;;;;;5005432;28;20269;-64
2020/12/01 12:39:48;;;;;;;10.10;5.80;;;3.60;99.90;;;;;;5009377;28;20200;-64
2020/12/01 12:42:14;;;;;;;8.40;5.10;;;3.70;99.90;;;;;;5013593;28;20481;-64
2020/12/01 12:44:40;;;;;;;6.40;5.10;;;3.70;99.90;;;;;;5012891;28;20439;-59
2020/12/01 12:47:05;;;;;;;11.33;4.93;;;3.70;99.90;;;;;;5010609;28;20205;-59
2020/12/01 12:49:31;;;;;;;10.70;5.10;;;3.80;99.90;;;;;;5010007;28;20254;-58
2020/12/01 12:51:58;;;;;;;15.50;6.13;;;3.80;99.90;;;;;;5012036;28;20192;-59
2020/12/01 12:54:24;;;;;;;7.30;4.90;;;3.80;99.90;;;;;;5012968;28;20560;-61
2020/12/01 12:56:50;;;;;;;6.90;4.77;;;3.80;99.90;;;;;;5009597;28;20642;-59
2020/12/01 12:59:16;;;;;;;7.40;4.50;;;3.70;99.90;;;;;;5017484;28;20216;-60
2020/12/01 13:01:42;;;;;;;17.63;5.17;;;3.60;99.90;;;;;;5016151;28;20441;-60
2020/12/01 13:04:07;;;;;;;8.53;4.80;;;3.60;99.90;;;;;;5008922;28;20197;-60
2020/12/01 13:06:33;;;;;;;9.43;5.40;;;3.50;99.90;;;;;;5016860;28;20183;-59
2020/12/01 13:08:59;;;;;;;7.20;4.63;;;3.40;99.90;;;;;;5010418;28;20569;-60
2020/12/01 13:11:24;;;;;;;7.97;4.90;;;3.30;99.90;;;;;;5008434;28;20187;-61
2020/12/01 13:13:50;;;;;;;7.30;4.83;;;3.20;99.90;;;;;;5014667;28;20590;-62
2020/12/01 13:16:18;;;;;;;7.17;4.77;;;3.10;99.90;;;;;;5003352;28;20185;-63
2020/12/01 13:18:44;;;;;;;8.03;5.10;;;3.10;99.90;;;;;;5007720;28;20451;-61
2020/12/01 13:21:10;;;;;;;10.97;5.70;;;3.00;99.90;;;;;;5004864;28;21002;-61
2020/12/01 13:23:35;;;;;;;9.27;6.00;;;3.00;99.90;;;;;;5009015;28;20438;-62
2020/12/01 13:26:01;;;;;;;12.20;6.67;;;2.90;99.90;;;;;;5009487;28;20195;-60
2020/12/01 13:28:27;;;;;;;11.53;5.93;;;2.90;99.90;;;;;;5008521;28;20215;-60
2020/12/01 13:30:53;;;;;;;10.40;6.10;;;2.90;99.90;;;;;;5015793;28;20472;-60
2020/12/01 13:33:19;;;;;;;11.30;6.10;;;2.90;99.90;;;;;;4999063;28;20844;-63
2020/12/01 13:35:45;;;;;;;8.37;5.73;;;2.90;99.90;;;;;;5006393;28;20196;-61
2020/12/01 13:38:12;;;;;;;12.37;6.80;;;2.80;99.90;;;;;;5014280;28;20673;-61
2020/12/01 13:40:38;;;;;;;9.00;6.30;;;2.80;99.90;;;;;;5005435;28;20541;-61
2020/12/01 13:43:04;;;;;;;8.53;6.37;;;2.80;99.90;;;;;;5007696;28;20872;-60
2020/12/01 13:45:30;;;;;;;10.53;5.60;;;2.80;99.90;;;;;;5007603;28;20536;-61
2020/12/01 13:47:56;;;;;;;8.57;5.43;;;2.70;99.90;;;;;;5009385;28;20242;-62
2020/12/01 13:50:24;;;;;;;11.10;6.53;;;2.70;99.90;;;;;;5003530;28;20234;-62